createdAt,value
2019-05-20T00:01:47.375Z,56.20
2019-05-20T00:06:53.722Z,53.23
2019-05-20T00:12:00.094Z,51.23
2019-05-20T00:17:08.012Z,52.77
2019-05-20T00:22:14.193Z,49.93
2019-05-20T00:27:20.359Z,49.67
2019-05-20T00:32:40.300Z,48.07
2019-05-20T00:37:35.465Z,47.05
2019-05-20T00:42:41.661Z,45.45
2019-05-20T00:47:47.842Z,41.80
2019-05-20T00:52:54.090Z,42.23
2019-05-20T00:58:00.388Z,38.73
2019-05-20T01:03:06.537Z,37.13
2019-05-20T01:08:12.731Z,38.43
2019-05-20T01:13:20.411Z,32.33
2019-05-20T01:18:26.747Z,31.63
2019-05-20T01:23:32.993Z,33.43
2019-05-20T01:28:39.348Z,33.80
2019-05-20T01:33:45.541Z,32.95
2019-05-20T01:38:51.873Z,33.53
2019-05-20T01:43:58.031Z,32.77
2019-05-20T01:49:05.119Z,32.77
2019-05-20T01:54:11.272Z,30.43
2019-05-20T01:59:17.785Z,27.65
2019-05-20T02:04:23.883Z,29.93
2019-05-20T02:09:30.196Z,31.13
2019-05-20T02:14:41.449Z,30.05
2019-05-20T02:19:48.498Z,29.93
2019-05-20T02:24:54.901Z,30.02
2019-05-20T02:30:00.929Z,27.97
2019-05-20T02:35:07.492Z,27.53
2019-05-20T02:40:13.806Z,28.47
2019-05-20T02:45:20.147Z,28.02
2019-05-20T02:50:26.311Z,28.10
2019-05-20T02:55:32.613Z,26.95
2019-05-20T03:00:38.772Z,27.10
2019-05-20T03:05:45.084Z,27.93
2019-05-20T03:10:51.157Z,26.77
2019-05-20T03:15:57.444Z,26.90
2019-05-20T03:21:03.595Z,28.97
2019-05-20T03:26:09.806Z,28.07
2019-05-20T03:31:16.007Z,27.37
2019-05-20T03:36:22.210Z,27.30
2019-05-20T03:41:29.528Z,27.27
2019-05-20T03:46:35.997Z,26.87
2019-05-20T03:51:42.358Z,26.10
2019-05-20T03:56:48.374Z,26.77
2019-05-20T04:01:54.615Z,25.67
2019-05-20T04:07:00.743Z,24.90
2019-05-20T04:12:07.182Z,24.83
2019-05-20T04:17:13.256Z,23.93
2019-05-20T04:22:19.475Z,24.47
2019-05-20T04:27:25.633Z,24.67
2019-05-20T04:32:32.154Z,23.83
2019-05-20T04:37:38.429Z,26.07
2019-05-20T04:42:44.903Z,25.53
2019-05-20T04:47:51.122Z,24.20
2019-05-20T04:52:57.412Z,25.30
2019-05-20T04:58:03.511Z,27.05
2019-05-20T05:03:12.168Z,27.87
2019-05-20T05:08:18.654Z,28.47
2019-05-20T05:13:25.804Z,29.27
2019-05-20T05:18:32.088Z,28.00
2019-05-20T05:23:39.436Z,26.67
2019-05-20T05:28:45.703Z,25.53
2019-05-20T05:33:54.340Z,25.90
2019-05-20T05:38:59.973Z,23.13
2019-05-20T05:44:06.165Z,22.33
2019-05-20T05:49:12.334Z,23.27
2019-05-20T05:54:18.478Z,24.37
2019-05-20T05:59:24.834Z,23.95
2019-05-20T06:04:31.095Z,23.80
2019-05-20T06:09:37.421Z,25.00
2019-05-20T06:14:43.821Z,25.87
2019-05-20T06:19:50.153Z,26.90
2019-05-20T06:24:56.278Z,26.17
2019-05-20T06:30:02.733Z,27.80
2019-05-20T06:35:10.766Z,26.30
2019-05-20T06:40:17.302Z,28.10
2019-05-20T06:45:23.428Z,28.98
2019-05-20T06:50:30.121Z,30.47
2019-05-20T06:55:36.490Z,28.83
2019-05-20T07:00:43.116Z,31.40
2019-05-20T07:05:49.509Z,29.85
2019-05-20T07:10:55.801Z,29.07
2019-05-20T07:16:02.044Z,29.50
2019-05-20T07:21:08.356Z,29.13
2019-05-20T07:26:15.829Z,31.62
2019-05-20T07:31:22.225Z,30.80
2019-05-20T07:36:28.312Z,32.27
2019-05-20T07:41:34.734Z,31.70
2019-05-20T07:46:40.933Z,32.67
2019-05-20T07:51:47.678Z,31.47
2019-05-20T07:56:55.380Z,32.03
2019-05-20T08:02:01.822Z,32.10
2019-05-20T08:07:26.591Z,32.83
2019-05-20T08:12:16.202Z,31.83
2019-05-20T08:17:24.098Z,32.80
2019-05-20T08:22:30.696Z,33.80
2019-05-20T08:27:37.039Z,33.77
2019-05-20T08:32:43.215Z,33.83
2019-05-20T08:37:49.760Z,34.10
2019-05-20T08:42:55.947Z,33.87
2019-05-20T08:48:02.186Z,34.30
2019-05-20T08:53:08.728Z,31.30
2019-05-20T08:58:14.932Z,28.60
2019-05-20T09:03:21.264Z,28.10
2019-05-20T09:08:27.678Z,29.63
2019-05-20T09:13:33.955Z,28.23
2019-05-20T09:18:40.254Z,25.30
2019-05-20T09:23:46.457Z,26.23
2019-05-20T09:28:53.790Z,28.17
2019-05-20T09:34:00.127Z,27.37
2019-05-20T09:39:07.973Z,26.73
2019-05-20T09:44:14.296Z,29.90
2019-05-20T09:49:20.651Z,32.57
2019-05-20T09:54:26.931Z,33.80
2019-05-20T09:59:42.832Z,32.70
2019-05-20T10:04:41.438Z,30.80
2019-05-20T10:09:47.694Z,30.53
2019-05-20T10:14:55.026Z,33.23
2019-05-20T10:20:01.374Z,33.73
2019-05-20T10:25:09.463Z,36.63
2019-05-20T10:30:15.896Z,37.28
2019-05-20T10:35:22.061Z,37.53
2019-05-20T10:40:29.280Z,31.60
2019-05-20T10:45:35.434Z,33.73
2019-05-20T10:50:41.756Z,37.70
2019-05-20T10:55:47.927Z,37.60
2019-05-20T11:01:02.269Z,35.60
2019-05-20T11:06:03.435Z,35.30
2019-05-20T11:11:13.939Z,32.50
2019-05-20T11:16:18.588Z,32.00
2019-05-20T11:21:25.770Z,31.13
2019-05-20T11:26:32.025Z,34.30
2019-05-20T11:31:38.443Z,32.70
2019-05-20T11:36:44.791Z,32.03
2019-05-20T11:41:54.243Z,30.67
2019-05-20T11:46:58.894Z,29.90
2019-05-20T11:52:05.554Z,30.27
2019-05-20T11:57:12.952Z,30.37
2019-05-20T12:02:19.334Z,25.47
2019-05-20T12:07:27.184Z,26.33
2019-05-20T12:12:33.482Z,25.82
2019-05-20T12:17:39.795Z,27.30
2019-05-20T12:22:46.054Z,28.20
2019-05-20T12:27:52.272Z,28.83
2019-05-20T12:33:16.973Z,32.10
2019-05-20T12:38:06.576Z,35.67
2019-05-20T12:43:12.786Z,32.83
2019-05-20T12:48:19.045Z,33.93
2019-05-20T12:53:25.296Z,38.73
2019-05-20T12:58:31.672Z,37.37
2019-05-20T13:03:38.035Z,41.30
2019-05-20T13:08:44.287Z,41.60
2019-05-20T13:13:50.980Z,39.73
2019-05-20T13:18:57.293Z,36.60
2019-05-20T13:24:04.371Z,35.93
2019-05-20T13:29:10.640Z,36.15
2019-05-20T13:34:18.650Z,35.80
2019-05-20T13:39:25.110Z,33.37
2019-05-20T13:44:31.585Z,37.37
2019-05-20T13:49:37.916Z,33.03
2019-05-20T13:54:44.155Z,34.27
2019-05-20T13:59:50.452Z,32.17
2019-05-20T14:04:56.804Z,31.85
2019-05-20T14:10:03.106Z,29.47
2019-05-20T14:15:11.823Z,28.93
2019-05-20T14:20:18.349Z,30.33
2019-05-20T14:25:24.714Z,30.03
2019-05-20T14:30:30.926Z,28.57
2019-05-20T14:35:37.720Z,27.50
2019-05-20T14:40:44.477Z,27.03
2019-05-20T14:45:51.173Z,27.13
2019-05-20T14:50:57.560Z,28.00
2019-05-20T14:56:03.831Z,28.10
2019-05-20T15:01:10.246Z,26.05
2019-05-20T15:06:16.609Z,26.00
2019-05-20T15:11:37.068Z,28.10
2019-05-20T15:16:30.684Z,29.20
2019-05-20T15:21:37.495Z,31.57
2019-05-20T15:26:43.943Z,31.37
2019-05-20T15:31:50.166Z,31.53
2019-05-20T15:36:56.570Z,31.17
2019-05-20T15:42:03.362Z,30.47
2019-05-20T15:47:09.823Z,30.47
2019-05-20T15:52:16.176Z,29.10
2019-05-20T15:57:22.415Z,29.80
2019-05-20T16:02:28.848Z,28.47
2019-05-20T16:07:35.248Z,29.10
2019-05-20T16:12:42.031Z,28.30
2019-05-20T16:17:48.866Z,27.30
2019-05-20T16:22:55.417Z,23.80
2019-05-20T16:28:01.765Z,23.60
2019-05-20T16:33:08.067Z,23.67
2019-05-20T16:38:14.482Z,23.87
2019-05-20T16:43:20.889Z,25.63
2019-05-20T16:48:27.157Z,26.30
2019-05-20T16:53:33.426Z,24.15
2019-05-20T16:58:40.982Z,24.80
2019-05-20T17:03:47.272Z,26.17
2019-05-20T17:08:53.967Z,26.82
2019-05-20T17:14:00.346Z,25.90
2019-05-20T17:19:06.629Z,25.67
2019-05-20T17:24:12.817Z,27.03
2019-05-20T17:29:19.097Z,27.07
2019-05-20T17:34:25.394Z,25.88
2019-05-20T17:39:31.863Z,25.65
2019-05-20T17:44:38.228Z,30.77
2019-05-20T17:49:44.638Z,27.57
2019-05-20T17:54:51.025Z,25.77
2019-05-20T17:59:57.277Z,26.60
2019-05-20T18:05:06.856Z,28.60
2019-05-20T18:10:13.901Z,26.55
2019-05-20T18:15:20.494Z,28.10
2019-05-20T18:20:27.179Z,27.03
2019-05-20T18:25:33.554Z,26.37
2019-05-20T18:30:39.834Z,27.33
2019-05-20T18:35:46.204Z,26.27
2019-05-20T18:40:52.594Z,26.10
2019-05-20T18:45:59.283Z,25.57
2019-05-20T18:51:05.576Z,27.43
2019-05-20T18:56:12.143Z,27.27
2019-05-20T19:01:19.635Z,28.62
2019-05-20T19:06:26.163Z,26.97
2019-05-20T19:11:32.552Z,27.43
2019-05-20T19:16:39.030Z,26.60
2019-05-20T19:21:45.423Z,26.27
2019-05-20T19:26:51.677Z,25.43
2019-05-20T19:32:01.767Z,26.60
2019-05-20T19:37:06.973Z,25.37
2019-05-20T19:42:13.277Z,31.80
2019-05-20T19:47:19.410Z,27.87
2019-05-20T19:52:25.638Z,27.93
2019-05-20T19:57:31.795Z,27.50
2019-05-20T20:02:37.998Z,29.27
2019-05-20T20:07:45.934Z,27.95
2019-05-20T20:12:52.207Z,28.60
2019-05-20T20:17:58.552Z,27.48
2019-05-20T20:23:05.197Z,29.13
2019-05-20T20:28:11.357Z,28.75
2019-05-20T20:33:17.486Z,30.23
2019-05-20T20:38:23.848Z,27.62
2019-05-20T20:43:32.183Z,29.43
2019-05-20T20:48:37.946Z,30.37
2019-05-20T20:53:44.159Z,29.67
2019-05-20T20:58:50.255Z,28.50
2019-05-20T21:03:56.503Z,27.85
2019-05-20T21:09:02.797Z,30.07
2019-05-20T21:14:09.220Z,29.10
2019-05-20T21:19:15.487Z,28.15
2019-05-20T21:24:21.701Z,29.12
2019-05-20T21:29:27.917Z,31.67
2019-05-20T21:34:34.042Z,33.43
2019-05-20T21:39:41.432Z,33.80
2019-05-20T21:44:47.702Z,32.37
2019-05-20T21:49:54.069Z,32.10
2019-05-20T21:55:00.436Z,31.50
2019-05-20T22:00:08.912Z,30.33
2019-05-20T22:05:17.064Z,31.27
2019-05-20T22:10:23.456Z,30.07
2019-05-20T22:15:30.138Z,32.73
2019-05-20T22:20:38.220Z,31.37
2019-05-20T22:25:45.043Z,28.57
2019-05-20T22:30:51.450Z,27.40
2019-05-20T22:35:57.737Z,30.30
2019-05-20T22:41:04.406Z,30.00
2019-05-20T22:46:10.887Z,30.55
2019-05-20T22:51:17.657Z,30.57
2019-05-20T22:56:23.964Z,32.80
2019-05-20T23:01:30.201Z,32.80
2019-05-20T23:06:37.425Z,31.47
2019-05-20T23:11:44.744Z,29.80
2019-05-20T23:16:51.562Z,31.63
2019-05-20T23:21:58.088Z,30.87
2019-05-20T23:27:04.391Z,32.90
2019-05-20T23:32:10.817Z,31.05
2019-05-20T23:37:17.355Z,30.00
2019-05-20T23:42:23.777Z,29.77
2019-05-20T23:47:30.111Z,30.13
2019-05-20T23:52:36.465Z,29.60
2019-05-20T23:57:42.955Z,31.50
